sensor_id;sensor_type;location;lat;lon;timestamp;temperature;humidity
19622;DHT22;9958;33.196;-97.114;2023-05-25T00:01:05;29.40;83.30
19622;DHT22;9958;33.196;-97.114;2023-05-25T00:03:35;29.40;83.80
19622;DHT22;9958;33.196;-97.114;2023-05-25T00:06:05;29.20;83.50
19622;DHT22;9958;33.196;-97.114;2023-05-25T00:08:35;29.20;84.80
19622;DHT22;9958;33.196;-97.114;2023-05-25T00:11:03;29.10;84.80
19622;DHT22;9958;33.196;-97.114;2023-05-25T00:13:32;29.10;85.50
19622;DHT22;9958;33.196;-97.114;2023-05-25T00:16:00;29.00;84.40
19622;DHT22;9958;33.196;-97.114;2023-05-25T00:18:31;28.90;84.60
19622;DHT22;9958;33.196;-97.114;2023-05-25T00:21:03;28.90;85.00
19622;DHT22;9958;33.196;-97.114;2023-05-25T00:23:32;28.80;84.30
19622;DHT22;9958;33.196;-97.114;2023-05-25T00:26:02;28.70;84.90
19622;DHT22;9958;33.196;-97.114;2023-05-25T00:28:31;28.70;84.60
19622;DHT22;9958;33.196;-97.114;2023-05-25T00:30:59;28.70;84.70
19622;DHT22;9958;33.196;-97.114;2023-05-25T00:33:29;28.60;84.70
19622;DHT22;9958;33.196;-97.114;2023-05-25T00:35:57;28.60;85.70
19622;DHT22;9958;33.196;-97.114;2023-05-25T00:38:26;28.50;85.20
19622;DHT22;9958;33.196;-97.114;2023-05-25T00:40:54;28.40;85.90
19622;DHT22;9958;33.196;-97.114;2023-05-25T00:43:23;28.40;87.00
19622;DHT22;9958;33.196;-97.114;2023-05-25T00:45:51;28.30;86.70
19622;DHT22;9958;33.196;-97.114;2023-05-25T00:48:22;28.30;87.20
19622;DHT22;9958;33.196;-97.114;2023-05-25T00:50:54;28.20;87.80
19622;DHT22;9958;33.196;-97.114;2023-05-25T00:53:25;28.20;88.20
19622;DHT22;9958;33.196;-97.114;2023-05-25T00:56:01;28.10;88.50
19622;DHT22;9958;33.196;-97.114;2023-05-25T00:58:32;28.00;88.70
19622;DHT22;9958;33.196;-97.114;2023-05-25T01:01:01;28.00;89.20
19622;DHT22;9958;33.196;-97.114;2023-05-25T01:03:35;28.00;90.00
19622;DHT22;9958;33.196;-97.114;2023-05-25T01:06:08;27.90;89.60
19622;DHT22;9958;33.196;-97.114;2023-05-25T01:08:40;27.80;90.00
19622;DHT22;9958;33.196;-97.114;2023-05-25T01:11:10;27.80;90.10
19622;DHT22;9958;33.196;-97.114;2023-05-25T01:13:40;27.70;90.20
19622;DHT22;9958;33.196;-97.114;2023-05-25T01:16:09;27.60;90.20
19622;DHT22;9958;33.196;-97.114;2023-05-25T01:18:38;27.60;90.50
19622;DHT22;9958;33.196;-97.114;2023-05-25T01:21:13;27.50;90.60
19622;DHT22;9958;33.196;-97.114;2023-05-25T01:23:50;27.50;90.80
19622;DHT22;9958;33.196;-97.114;2023-05-25T01:26:20;27.40;91.10
19622;DHT22;9958;33.196;-97.114;2023-05-25T01:28:52;27.40;91.10
19622;DHT22;9958;33.196;-97.114;2023-05-25T01:31:22;27.30;91.60
19622;DHT22;9958;33.196;-97.114;2023-05-25T01:33:51;27.20;92.50
19622;DHT22;9958;33.196;-97.114;2023-05-25T01:36:22;27.20;92.70
19622;DHT22;9958;33.196;-97.114;2023-05-25T01:38:50;27.10;93.10
19622;DHT22;9958;33.196;-97.114;2023-05-25T01:41:18;27.00;94.20
19622;DHT22;9958;33.196;-97.114;2023-05-25T01:43:47;27.00;94.80
19622;DHT22;9958;33.196;-97.114;2023-05-25T01:46:21;27.00;95.80
19622;DHT22;9958;33.196;-97.114;2023-05-25T01:48:55;26.90;96.10
19622;DHT22;9958;33.196;-97.114;2023-05-25T01:51:35;26.90;96.70
19622;DHT22;9958;33.196;-97.114;2023-05-25T01:54:08;26.80;97.70
19622;DHT22;9958;33.196;-97.114;2023-05-25T01:56:39;26.80;98.30
19622;DHT22;9958;33.196;-97.114;2023-05-25T01:59:08;26.70;98.60
19622;DHT22;9958;33.196;-97.114;2023-05-25T02:01:37;26.70;98.90
19622;DHT22;9958;33.196;-97.114;2023-05-25T02:04:08;26.60;99.40
19622;DHT22;9958;33.196;-97.114;2023-05-25T02:06:38;26.60;99.70
19622;DHT22;9958;33.196;-97.114;2023-05-25T02:09:06;26.60;99.90
19622;DHT22;9958;33.196;-97.114;2023-05-25T02:11:34;26.60;99.90
19622;DHT22;9958;33.196;-97.114;2023-05-25T02:14:03;26.50;99.90
19622;DHT22;9958;33.196;-97.114;2023-05-25T02:16:31;26.50;99.90
19622;DHT22;9958;33.196;-97.114;2023-05-25T02:18:59;26.40;99.90
19622;DHT22;9958;33.196;-97.114;2023-05-25T02:21:28;26.40;99.90
19622;DHT22;9958;33.196;-97.114;2023-05-25T02:23:59;26.40;99.90
19622;DHT22;9958;33.196;-97.114;2023-05-25T02:26:27;26.30;99.90
19622;DHT22;9958;33.196;-97.114;2023-05-25T02:28:56;26.40;99.90
19622;DHT22;9958;33.196;-97.114;2023-05-25T02:31:24;26.30;99.90
19622;DHT22;9958;33.196;-97.114;2023-05-25T02:33:53;26.20;99.90
19622;DHT22;9958;33.196;-97.114;2023-05-25T02:36:21;26.10;99.90
19622;DHT22;9958;33.196;-97.114;2023-05-25T02:38:50;26.10;99.90
19622;DHT22;9958;33.196;-97.114;2023-05-25T02:41:20;26.10;99.90
19622;DHT22;9958;33.196;-97.114;2023-05-25T02:43:49;26.10;99.90
19622;DHT22;9958;33.196;-97.114;2023-05-25T02:46:18;26.00;99.90
19622;DHT22;9958;33.196;-97.114;2023-05-25T02:48:47;26.00;99.90
19622;DHT22;9958;33.196;-97.114;2023-05-25T02:51:16;25.90;99.90
19622;DHT22;9958;33.196;-97.114;2023-05-25T02:53:44;25.90;99.90
19622;DHT22;9958;33.196;-97.114;2023-05-25T02:56:13;25.90;99.90
19622;DHT22;9958;33.196;-97.114;2023-05-25T02:58:43;25.90;99.90
19622;DHT22;9958;33.196;-97.114;2023-05-25T03:01:11;25.80;99.90
19622;DHT22;9958;33.196;-97.114;2023-05-25T03:03:44;25.80;99.90
19622;DHT22;9958;33.196;-97.114;2023-05-25T03:06:13;25.80;99.90
19622;DHT22;9958;33.196;-97.114;2023-05-25T03:08:42;25.80;99.90
19622;DHT22;9958;33.196;-97.114;2023-05-25T03:11:10;25.70;99.90
19622;DHT22;9958;33.196;-97.114;2023-05-25T03:13:38;25.70;99.90
19622;DHT22;9958;33.196;-97.114;2023-05-25T03:16:08;25.70;99.90
19622;DHT22;9958;33.196;-97.114;2023-05-25T03:18:37;25.70;99.90
19622;DHT22;9958;33.196;-97.114;2023-05-25T03:21:06;25.70;99.90
19622;DHT22;9958;33.196;-97.114;2023-05-25T03:23:34;25.70;99.90
19622;DHT22;9958;33.196;-97.114;2023-05-25T03:26:03;25.60;99.90
19622;DHT22;9958;33.196;-97.114;2023-05-25T03:28:31;25.70;99.90
19622;DHT22;9958;33.196;-97.114;2023-05-25T03:30:59;25.60;99.90
19622;DHT22;9958;33.196;-97.114;2023-05-25T03:33:29;25.60;99.90
19622;DHT22;9958;33.196;-97.114;2023-05-25T03:35:58;25.50;99.90
19622;DHT22;9958;33.196;-97.114;2023-05-25T03:38:26;25.50;99.90
19622;DHT22;9958;33.196;-97.114;2023-05-25T03:40:55;25.50;99.90
19622;DHT22;9958;33.196;-97.114;2023-05-25T03:43:23;25.50;99.90
19622;DHT22;9958;33.196;-97.114;2023-05-25T03:45:51;25.40;99.90
19622;DHT22;9958;33.196;-97.114;2023-05-25T03:48:20;25.40;99.90
19622;DHT22;9958;33.196;-97.114;2023-05-25T03:50:50;25.40;99.90
19622;DHT22;9958;33.196;-97.114;2023-05-25T03:53:18;25.40;99.90
19622;DHT22;9958;33.196;-97.114;2023-05-25T03:55:46;25.40;99.90
19622;DHT22;9958;33.196;-97.114;2023-05-25T03:58:17;25.30;99.90
19622;DHT22;9958;33.196;-97.114;2023-05-25T04:00:45;25.30;99.90
19622;DHT22;9958;33.196;-97.114;2023-05-25T04:03:15;25.30;99.90
19622;DHT22;9958;33.196;-97.114;2023-05-25T04:05:44;25.30;99.90
19622;DHT22;9958;33.196;-97.114;2023-05-25T04:08:15;25.20;99.90
19622;DHT22;9958;33.196;-97.114;2023-05-25T04:10:44;25.20;99.90
19622;DHT22;9958;33.196;-97.114;2023-05-25T04:13:13;25.20;99.90
19622;DHT22;9958;33.196;-97.114;2023-05-25T04:15:41;25.10;99.90
19622;DHT22;9958;33.196;-97.114;2023-05-25T04:18:09;25.10;99.90
19622;DHT22;9958;33.196;-97.114;2023-05-25T04:20:38;25.10;99.90
19622;DHT22;9958;33.196;-97.114;2023-05-25T04:23:06;25.00;99.90
19622;DHT22;9958;33.196;-97.114;2023-05-25T04:25:36;25.00;99.90
19622;DHT22;9958;33.196;-97.114;2023-05-25T04:28:04;25.00;99.90
19622;DHT22;9958;33.196;-97.114;2023-05-25T04:30:33;25.00;99.90
19622;DHT22;9958;33.196;-97.114;2023-05-25T04:33:02;24.90;99.90
19622;DHT22;9958;33.196;-97.114;2023-05-25T04:35:30;24.90;99.90
19622;DHT22;9958;33.196;-97.114;2023-05-25T04:37:59;24.80;99.90
19622;DHT22;9958;33.196;-97.114;2023-05-25T04:40:28;24.80;99.90
19622;DHT22;9958;33.196;-97.114;2023-05-25T04:43:00;24.80;99.90
19622;DHT22;9958;33.196;-97.114;2023-05-25T04:45:28;24.80;99.90
19622;DHT22;9958;33.196;-97.114;2023-05-25T04:47:58;24.80;99.90
19622;DHT22;9958;33.196;-97.114;2023-05-25T04:50:27;24.80;99.90
19622;DHT22;9958;33.196;-97.114;2023-05-25T04:52:55;24.70;99.90
19622;DHT22;9958;33.196;-97.114;2023-05-25T04:55:24;24.70;99.90
19622;DHT22;9958;33.196;-97.114;2023-05-25T04:57:52;24.60;99.90
19622;DHT22;9958;33.196;-97.114;2023-05-25T05:00:22;24.60;99.90
19622;DHT22;9958;33.196;-97.114;2023-05-25T05:02:50;24.50;99.90
19622;DHT22;9958;33.196;-97.114;2023-05-25T05:05:19;24.50;99.90
19622;DHT22;9958;33.196;-97.114;2023-05-25T05:07:47;24.40;99.90
19622;DHT22;9958;33.196;-97.114;2023-05-25T05:10:16;24.40;99.90
19622;DHT22;9958;33.196;-97.114;2023-05-25T05:12:44;24.40;99.90
19622;DHT22;9958;33.196;-97.114;2023-05-25T05:15:12;24.30;99.90
19622;DHT22;9958;33.196;-97.114;2023-05-25T05:17:42;24.30;99.90
19622;DHT22;9958;33.196;-97.114;2023-05-25T05:20:11;24.30;99.90
19622;DHT22;9958;33.196;-97.114;2023-05-25T05:22:39;24.30;99.90
19622;DHT22;9958;33.196;-97.114;2023-05-25T05:25:09;24.30;99.90
19622;DHT22;9958;33.196;-97.114;2023-05-25T05:27:37;24.20;99.90
19622;DHT22;9958;33.196;-97.114;2023-05-25T05:30:06;24.20;99.90
19622;DHT22;9958;33.196;-97.114;2023-05-25T05:32:35;24.10;99.90
19622;DHT22;9958;33.196;-97.114;2023-05-25T05:35:05;24.10;99.90
19622;DHT22;9958;33.196;-97.114;2023-05-25T05:37:34;24.10;99.90
19622;DHT22;9958;33.196;-97.114;2023-05-25T05:40:02;24.00;99.90
19622;DHT22;9958;33.196;-97.114;2023-05-25T05:42:31;24.00;99.90
19622;DHT22;9958;33.196;-97.114;2023-05-25T05:44:59;24.00;99.90
19622;DHT22;9958;33.196;-97.114;2023-05-25T05:47:27;23.90;99.90
19622;DHT22;9958;33.196;-97.114;2023-05-25T05:49:56;23.90;99.90
19622;DHT22;9958;33.196;-97.114;2023-05-25T05:52:26;23.80;99.90
19622;DHT22;9958;33.196;-97.114;2023-05-25T05:54:55;23.80;99.90
19622;DHT22;9958;33.196;-97.114;2023-05-25T05:57:23;23.80;99.90
19622;DHT22;9958;33.196;-97.114;2023-05-25T05:59:51;23.80;99.90
19622;DHT22;9958;33.196;-97.114;2023-05-25T06:02:20;23.80;99.90
19622;DHT22;9958;33.196;-97.114;2023-05-25T06:04:48;23.70;99.90
19622;DHT22;9958;33.196;-97.114;2023-05-25T06:07:16;23.80;99.90
19622;DHT22;9958;33.196;-97.114;2023-05-25T06:09:46;23.70;99.90
19622;DHT22;9958;33.196;-97.114;2023-05-25T06:12:14;23.70;99.90
19622;DHT22;9958;33.196;-97.114;2023-05-25T06:14:43;23.70;99.90
19622;DHT22;9958;33.196;-97.114;2023-05-25T06:17:14;23.70;99.90
19622;DHT22;9958;33.196;-97.114;2023-05-25T06:19:43;23.60;99.90
19622;DHT22;9958;33.196;-97.114;2023-05-25T06:22:11;23.60;99.90
19622;DHT22;9958;33.196;-97.114;2023-05-25T06:24:40;23.50;99.90
19622;DHT22;9958;33.196;-97.114;2023-05-25T06:27:09;23.50;99.90
19622;DHT22;9958;33.196;-97.114;2023-05-25T06:29:38;23.50;99.90
19622;DHT22;9958;33.196;-97.114;2023-05-25T06:32:07;23.50;99.90
19622;DHT22;9958;33.196;-97.114;2023-05-25T06:34:36;23.40;99.90
19622;DHT22;9958;33.196;-97.114;2023-05-25T06:37:05;23.40;99.90
19622;DHT22;9958;33.196;-97.114;2023-05-25T06:39:33;23.40;99.90
19622;DHT22;9958;33.196;-97.114;2023-05-25T06:42:01;23.40;99.90
19622;DHT22;9958;33.196;-97.114;2023-05-25T06:44:31;23.30;99.90
19622;DHT22;9958;33.196;-97.114;2023-05-25T06:47:00;23.30;99.90
19622;DHT22;9958;33.196;-97.114;2023-05-25T06:49:28;23.30;99.90
19622;DHT22;9958;33.196;-97.114;2023-05-25T06:51:57;23.30;99.90
19622;DHT22;9958;33.196;-97.114;2023-05-25T06:54:25;23.30;99.90
19622;DHT22;9958;33.196;-97.114;2023-05-25T06:56:54;23.20;99.90
19622;DHT22;9958;33.196;-97.114;2023-05-25T06:59:22;23.20;99.90
19622;DHT22;9958;33.196;-97.114;2023-05-25T07:01:52;23.20;99.90
19622;DHT22;9958;33.196;-97.114;2023-05-25T07:04:21;23.10;99.90
19622;DHT22;9958;33.196;-97.114;2023-05-25T07:06:49;23.10;99.90
19622;DHT22;9958;33.196;-97.114;2023-05-25T07:09:17;23.10;99.90
19622;DHT22;9958;33.196;-97.114;2023-05-25T07:11:46;23.10;99.90
19622;DHT22;9958;33.196;-97.114;2023-05-25T07:14:15;23.00;99.90
19622;DHT22;9958;33.196;-97.114;2023-05-25T07:16:44;23.00;99.90
19622;DHT22;9958;33.196;-97.114;2023-05-25T07:19:14;23.00;99.90
19622;DHT22;9958;33.196;-97.114;2023-05-25T07:21:42;22.90;99.90
19622;DHT22;9958;33.196;-97.114;2023-05-25T07:24:10;22.90;99.90
19622;DHT22;9958;33.196;-97.114;2023-05-25T07:26:38;22.90;99.90
19622;DHT22;9958;33.196;-97.114;2023-05-25T07:29:09;22.80;99.90
19622;DHT22;9958;33.196;-97.114;2023-05-25T07:31:38;22.80;99.90
19622;DHT22;9958;33.196;-97.114;2023-05-25T07:34:06;22.70;99.90
19622;DHT22;9958;33.196;-97.114;2023-05-25T07:36:36;22.80;99.90
19622;DHT22;9958;33.196;-97.114;2023-05-25T07:39:05;22.70;99.90
19622;DHT22;9958;33.196;-97.114;2023-05-25T07:41:33;22.70;99.90
19622;DHT22;9958;33.196;-97.114;2023-05-25T07:44:02;22.70;99.90
19622;DHT22;9958;33.196;-97.114;2023-05-25T07:46:30;22.70;99.90
19622;DHT22;9958;33.196;-97.114;2023-05-25T07:48:58;22.70;99.90
19622;DHT22;9958;33.196;-97.114;2023-05-25T07:51:29;22.70;99.90
19622;DHT22;9958;33.196;-97.114;2023-05-25T07:54:00;22.70;99.90
19622;DHT22;9958;33.196;-97.114;2023-05-25T07:56:28;22.70;99.90
19622;DHT22;9958;33.196;-97.114;2023-05-25T07:58:57;22.70;99.90
19622;DHT22;9958;33.196;-97.114;2023-05-25T08:01:25;22.70;99.90
19622;DHT22;9958;33.196;-97.114;2023-05-25T08:03:54;22.60;99.90
19622;DHT22;9958;33.196;-97.114;2023-05-25T08:06:22;22.60;99.90
19622;DHT22;9958;33.196;-97.114;2023-05-25T08:08:50;22.60;99.90
19622;DHT22;9958;33.196;-97.114;2023-05-25T08:11:22;22.60;99.90
19622;DHT22;9958;33.196;-97.114;2023-05-25T08:13:51;22.60;99.90
19622;DHT22;9958;33.196;-97.114;2023-05-25T08:16:20;22.60;99.90
19622;DHT22;9958;33.196;-97.114;2023-05-25T08:18:48;22.60;99.90
19622;DHT22;9958;33.196;-97.114;2023-05-25T08:21:16;22.60;99.90
19622;DHT22;9958;33.196;-97.114;2023-05-25T08:23:45;22.60;99.90
19622;DHT22;9958;33.196;-97.114;2023-05-25T08:26:13;22.60;99.90
19622;DHT22;9958;33.196;-97.114;2023-05-25T08:28:43;22.60;99.90
19622;DHT22;9958;33.196;-97.114;2023-05-25T08:31:11;22.60;99.90
19622;DHT22;9958;33.196;-97.114;2023-05-25T08:33:39;22.50;99.90
19622;DHT22;9958;33.196;-97.114;2023-05-25T08:36:08;22.50;99.90
19622;DHT22;9958;33.196;-97.114;2023-05-25T08:38:36;22.50;99.90
19622;DHT22;9958;33.196;-97.114;2023-05-25T08:41:05;22.50;99.90
19622;DHT22;9958;33.196;-97.114;2023-05-25T08:43:34;22.50;99.90
19622;DHT22;9958;33.196;-97.114;2023-05-25T08:46:05;22.50;99.90
19622;DHT22;9958;33.196;-97.114;2023-05-25T08:48:34;22.50;99.90
19622;DHT22;9958;33.196;-97.114;2023-05-25T08:51:05;22.40;99.90
19622;DHT22;9958;33.196;-97.114;2023-05-25T08:53:35;22.40;99.90
19622;DHT22;9958;33.196;-97.114;2023-05-25T08:56:09;22.40;99.90
19622;DHT22;9958;33.196;-97.114;2023-05-25T08:58:44;22.40;99.90
19622;DHT22;9958;33.196;-97.114;2023-05-25T09:01:17;22.40;99.90
19622;DHT22;9958;33.196;-97.114;2023-05-25T09:03:47;22.40;99.90
19622;DHT22;9958;33.196;-97.114;2023-05-25T09:06:17;22.40;99.90
19622;DHT22;9958;33.196;-97.114;2023-05-25T09:08:46;22.40;99.90
19622;DHT22;9958;33.196;-97.114;2023-05-25T09:11:14;22.30;99.90
19622;DHT22;9958;33.196;-97.114;2023-05-25T09:13:43;22.30;99.90
19622;DHT22;9958;33.196;-97.114;2023-05-25T09:16:13;22.20;99.90
19622;DHT22;9958;33.196;-97.114;2023-05-25T09:18:43;22.20;99.90
19622;DHT22;9958;33.196;-97.114;2023-05-25T09:21:11;22.20;99.90
19622;DHT22;9958;33.196;-97.114;2023-05-25T09:23:40;22.10;99.90
19622;DHT22;9958;33.196;-97.114;2023-05-25T09:26:09;22.10;99.90
19622;DHT22;9958;33.196;-97.114;2023-05-25T09:28:44;22.10;99.90
19622;DHT22;9958;33.196;-97.114;2023-05-25T09:31:14;22.00;99.90
19622;DHT22;9958;33.196;-97.114;2023-05-25T09:33:43;22.00;99.90
19622;DHT22;9958;33.196;-97.114;2023-05-25T09:36:13;21.90;99.90
19622;DHT22;9958;33.196;-97.114;2023-05-25T09:38:43;21.90;99.90
19622;DHT22;9958;33.196;-97.114;2023-05-25T09:41:12;21.80;99.90
19622;DHT22;9958;33.196;-97.114;2023-05-25T09:43:40;21.80;99.90
19622;DHT22;9958;33.196;-97.114;2023-05-25T09:46:08;21.70;99.90
19622;DHT22;9958;33.196;-97.114;2023-05-25T09:48:39;21.70;99.90
19622;DHT22;9958;33.196;-97.114;2023-05-25T09:51:08;21.70;99.90
19622;DHT22;9958;33.196;-97.114;2023-05-25T09:53:38;21.60;99.90
19622;DHT22;9958;33.196;-97.114;2023-05-25T09:56:06;21.60;99.90
19622;DHT22;9958;33.196;-97.114;2023-05-25T09:58:35;21.50;99.90
19622;DHT22;9958;33.196;-97.114;2023-05-25T10:01:04;21.50;99.90
19622;DHT22;9958;33.196;-97.114;2023-05-25T10:03:32;21.40;99.90
19622;DHT22;9958;33.196;-97.114;2023-05-25T10:06:03;21.40;99.90
19622;DHT22;9958;33.196;-97.114;2023-05-25T10:08:32;21.40;99.90
19622;DHT22;9958;33.196;-97.114;2023-05-25T10:11:01;21.30;99.90
19622;DHT22;9958;33.196;-97.114;2023-05-25T10:13:29;21.30;99.90
19622;DHT22;9958;33.196;-97.114;2023-05-25T10:15:59;21.20;99.90
19622;DHT22;9958;33.196;-97.114;2023-05-25T10:18:32;21.20;99.90
19622;DHT22;9958;33.196;-97.114;2023-05-25T10:21:07;21.10;99.90
19622;DHT22;9958;33.196;-97.114;2023-05-25T10:23:39;21.10;99.90
19622;DHT22;9958;33.196;-97.114;2023-05-25T10:26:15;21.00;99.90
19622;DHT22;9958;33.196;-97.114;2023-05-25T10:28:47;21.00;99.90
19622;DHT22;9958;33.196;-97.114;2023-05-25T10:31:17;21.00;99.90
19622;DHT22;9958;33.196;-97.114;2023-05-25T10:33:46;20.90;99.90
19622;DHT22;9958;33.196;-97.114;2023-05-25T10:36:17;20.90;99.90
19622;DHT22;9958;33.196;-97.114;2023-05-25T10:38:47;20.90;99.90
19622;DHT22;9958;33.196;-97.114;2023-05-25T10:41:19;20.80;99.90
19622;DHT22;9958;33.196;-97.114;2023-05-25T10:43:47;20.80;99.90
19622;DHT22;9958;33.196;-97.114;2023-05-25T10:46:16;20.80;99.90
19622;DHT22;9958;33.196;-97.114;2023-05-25T10:48:46;20.70;99.90
19622;DHT22;9958;33.196;-97.114;2023-05-25T10:51:20;20.70;99.90
19622;DHT22;9958;33.196;-97.114;2023-05-25T10:53:59;20.70;99.90
19622;DHT22;9958;33.196;-97.114;2023-05-25T10:56:28;20.70;99.90
19622;DHT22;9958;33.196;-97.114;2023-05-25T10:58:56;20.60;99.90
19622;DHT22;9958;33.196;-97.114;2023-05-25T11:01:25;20.60;99.90
19622;DHT22;9958;33.196;-97.114;2023-05-25T11:03:54;20.60;99.90
19622;DHT22;9958;33.196;-97.114;2023-05-25T11:07:04;20.60;99.90
19622;DHT22;9958;33.196;-97.114;2023-05-25T11:09:42;20.50;99.90
19622;DHT22;9958;33.196;-97.114;2023-05-25T11:12:19;20.60;99.90
19622;DHT22;9958;33.196;-97.114;2023-05-25T11:15:12;20.50;99.90
19622;DHT22;9958;33.196;-97.114;2023-05-25T11:17:45;20.50;99.90
19622;DHT22;9958;33.196;-97.114;2023-05-25T11:20:25;20.50;99.90
19622;DHT22;9958;33.196;-97.114;2023-05-25T11:22:56;20.50;99.90
19622;DHT22;9958;33.196;-97.114;2023-05-25T11:25:42;20.40;99.90
19622;DHT22;9958;33.196;-97.114;2023-05-25T11:28:10;20.40;99.90
19622;DHT22;9958;33.196;-97.114;2023-05-25T11:30:39;20.40;99.90
19622;DHT22;9958;33.196;-97.114;2023-05-25T11:33:08;20.40;99.90
19622;DHT22;9958;33.196;-97.114;2023-05-25T11:35:37;20.40;99.90
19622;DHT22;9958;33.196;-97.114;2023-05-25T11:38:07;20.40;99.90
19622;DHT22;9958;33.196;-97.114;2023-05-25T11:40:36;20.40;99.90
19622;DHT22;9958;33.196;-97.114;2023-05-25T11:43:05;20.40;99.90
19622;DHT22;9958;33.196;-97.114;2023-05-25T11:45:35;20.50;99.90
19622;DHT22;9958;33.196;-97.114;2023-05-25T11:48:05;20.50;99.90
19622;DHT22;9958;33.196;-97.114;2023-05-25T11:50:33;20.50;99.90
19622;DHT22;9958;33.196;-97.114;2023-05-25T11:53:06;20.50;99.90
19622;DHT22;9958;33.196;-97.114;2023-05-25T11:55:35;20.60;99.90
19622;DHT22;9958;33.196;-97.114;2023-05-25T11:58:06;20.60;99.90
19622;DHT22;9958;33.196;-97.114;2023-05-25T12:00:34;20.70;99.90
19622;DHT22;9958;33.196;-97.114;2023-05-25T12:03:03;20.80;99.90
19622;DHT22;9958;33.196;-97.114;2023-05-25T12:05:37;20.90;99.90
19622;DHT22;9958;33.196;-97.114;2023-05-25T12:08:07;21.00;99.90
19622;DHT22;9958;33.196;-97.114;2023-05-25T12:10:48;21.00;99.90
19622;DHT22;9958;33.196;-97.114;2023-05-25T12:13:18;21.10;99.90
19622;DHT22;9958;33.196;-97.114;2023-05-25T12:15:46;21.10;99.90
19622;DHT22;9958;33.196;-97.114;2023-05-25T12:18:14;21.10;99.90
19622;DHT22;9958;33.196;-97.114;2023-05-25T12:20:43;21.20;99.90
19622;DHT22;9958;33.196;-97.114;2023-05-25T12:23:13;21.20;99.90
19622;DHT22;9958;33.196;-97.114;2023-05-25T12:25:42;21.30;99.90
19622;DHT22;9958;33.196;-97.114;2023-05-25T12:28:10;21.40;99.90
19622;DHT22;9958;33.196;-97.114;2023-05-25T12:30:38;21.50;99.90
19622;DHT22;9958;33.196;-97.114;2023-05-25T12:33:07;21.80;99.90
19622;DHT22;9958;33.196;-97.114;2023-05-25T12:35:44;22.20;99.90
19622;DHT22;9958;33.196;-97.114;2023-05-25T12:38:16;22.60;99.90
19622;DHT22;9958;33.196;-97.114;2023-05-25T12:40:45;22.90;99.90
19622;DHT22;9958;33.196;-97.114;2023-05-25T12:43:14;23.30;99.90
19622;DHT22;9958;33.196;-97.114;2023-05-25T12:45:43;23.80;99.90
19622;DHT22;9958;33.196;-97.114;2023-05-25T12:48:11;24.40;99.90
19622;DHT22;9958;33.196;-97.114;2023-05-25T12:50:56;25.00;99.90
19622;DHT22;9958;33.196;-97.114;2023-05-25T12:53:26;25.70;99.90
19622;DHT22;9958;33.196;-97.114;2023-05-25T12:56:03;26.50;99.90
19622;DHT22;9958;33.196;-97.114;2023-05-25T12:58:31;27.30;99.90
19622;DHT22;9958;33.196;-97.114;2023-05-25T13:01:00;28.00;99.90
19622;DHT22;9958;33.196;-97.114;2023-05-25T13:03:28;28.70;99.90
19622;DHT22;9958;33.196;-97.114;2023-05-25T13:06:00;29.30;99.90
19622;DHT22;9958;33.196;-97.114;2023-05-25T13:08:30;29.90;99.90
19622;DHT22;9958;33.196;-97.114;2023-05-25T13:10:58;30.50;99.90
19622;DHT22;9958;33.196;-97.114;2023-05-25T13:13:28;30.80;99.90
19622;DHT22;9958;33.196;-97.114;2023-05-25T13:15:57;31.00;99.90
19622;DHT22;9958;33.196;-97.114;2023-05-25T13:18:25;31.00;99.90
19622;DHT22;9958;33.196;-97.114;2023-05-25T13:20:53;30.80;99.90
19622;DHT22;9958;33.196;-97.114;2023-05-25T13:23:22;30.40;99.90
19622;DHT22;9958;33.196;-97.114;2023-05-25T13:25:52;29.90;99.90
19622;DHT22;9958;33.196;-97.114;2023-05-25T13:28:20;29.40;99.90
19622;DHT22;9958;33.196;-97.114;2023-05-25T13:30:48;28.90;99.90
19622;DHT22;9958;33.196;-97.114;2023-05-25T13:33:17;28.40;99.90
19622;DHT22;9958;33.196;-97.114;2023-05-25T13:35:45;27.90;99.90
19622;DHT22;9958;33.196;-97.114;2023-05-25T13:38:23;27.50;99.90
19622;DHT22;9958;33.196;-97.114;2023-05-25T13:40:53;27.10;99.90
19622;DHT22;9958;33.196;-97.114;2023-05-25T13:43:21;26.70;99.90
19622;DHT22;9958;33.196;-97.114;2023-05-25T13:45:49;26.40;99.90
19622;DHT22;9958;33.196;-97.114;2023-05-25T13:48:18;26.00;99.90
19622;DHT22;9958;33.196;-97.114;2023-05-25T13:50:46;25.80;99.90
19622;DHT22;9958;33.196;-97.114;2023-05-25T13:53:14;25.60;99.90
19622;DHT22;9958;33.196;-97.114;2023-05-25T13:55:43;25.50;99.90
19622;DHT22;9958;33.196;-97.114;2023-05-25T13:58:13;25.30;99.90
19622;DHT22;9958;33.196;-97.114;2023-05-25T14:00:41;25.20;99.90
19622;DHT22;9958;33.196;-97.114;2023-05-25T14:03:09;25.20;99.90
19622;DHT22;9958;33.196;-97.114;2023-05-25T14:05:38;25.20;99.90
19622;DHT22;9958;33.196;-97.114;2023-05-25T14:08:06;25.20;99.90
19622;DHT22;9958;33.196;-97.114;2023-05-25T14:10:35;25.30;99.90
19622;DHT22;9958;33.196;-97.114;2023-05-25T14:13:04;25.40;99.90
19622;DHT22;9958;33.196;-97.114;2023-05-25T14:15:34;25.60;99.90
19622;DHT22;9958;33.196;-97.114;2023-05-25T14:18:02;25.80;99.90
19622;DHT22;9958;33.196;-97.114;2023-05-25T14:20:31;26.00;99.90
19622;DHT22;9958;33.196;-97.114;2023-05-25T14:23:02;26.30;99.90
19622;DHT22;9958;33.196;-97.114;2023-05-25T14:25:30;26.50;99.90
19622;DHT22;9958;33.196;-97.114;2023-05-25T14:27:59;26.80;99.90
19622;DHT22;9958;33.196;-97.114;2023-05-25T14:30:27;27.10;99.90
19622;DHT22;9958;33.196;-97.114;2023-05-25T14:32:57;27.30;99.90
19622;DHT22;9958;33.196;-97.114;2023-05-25T14:35:25;27.50;99.90
19622;DHT22;9958;33.196;-97.114;2023-05-25T14:37:53;27.70;99.90
19622;DHT22;9958;33.196;-97.114;2023-05-25T14:40:22;27.90;99.90
19622;DHT22;9958;33.196;-97.114;2023-05-25T14:42:50;28.10;99.90
19622;DHT22;9958;33.196;-97.114;2023-05-25T14:45:20;28.20;99.90
19622;DHT22;9958;33.196;-97.114;2023-05-25T14:47:49;28.40;99.90
19622;DHT22;9958;33.196;-97.114;2023-05-25T14:50:18;28.50;99.90
19622;DHT22;9958;33.196;-97.114;2023-05-25T14:52:47;28.70;99.90
19622;DHT22;9958;33.196;-97.114;2023-05-25T14:55:15;28.80;99.90
19622;DHT22;9958;33.196;-97.114;2023-05-25T14:57:43;28.90;99.90
19622;DHT22;9958;33.196;-97.114;2023-05-25T15:00:13;28.90;99.90
19622;DHT22;9958;33.196;-97.114;2023-05-25T15:02:41;28.90;99.90
19622;DHT22;9958;33.196;-97.114;2023-05-25T15:05:09;28.90;99.90
19622;DHT22;9958;33.196;-97.114;2023-05-25T15:07:39;28.70;99.90
19622;DHT22;9958;33.196;-97.114;2023-05-25T15:10:08;28.60;99.90
19622;DHT22;9958;33.196;-97.114;2023-05-25T15:12:37;28.30;99.90
19622;DHT22;9958;33.196;-97.114;2023-05-25T15:15:06;28.10;99.90
19622;DHT22;9958;33.196;-97.114;2023-05-25T15:17:34;27.80;99.90
19622;DHT22;9958;33.196;-97.114;2023-05-25T15:20:03;27.60;99.90
19622;DHT22;9958;33.196;-97.114;2023-05-25T15:22:31;27.40;99.90
19622;DHT22;9958;33.196;-97.114;2023-05-25T15:25:01;27.20;99.90
19622;DHT22;9958;33.196;-97.114;2023-05-25T15:27:29;27.00;99.90
19622;DHT22;9958;33.196;-97.114;2023-05-25T15:30:00;26.70;99.90